Faust, Canada
Current Conditions -  °F | °C
As of 2:07 AM on Sunday 26 Oct 2014 (Local Time) from CYZH Reporting Station
Light Snow Light Snow  
Wind Chill: 28°   Ceiling: 500
Heat Index: 34°   Visibility: 3mi
Dew Point: 34°   Wind: 7mph
Humidity: 100%   Direction: 110°ESE
Pressure: 29.59"   Gusts: NA
Location:  55.32°N, 115.72°W
Report Text: CYZH 260807Z AUTO 11006KT 3SM -SN OVC005 01/01 A2959 RMK ICG INTMT SLP041
Loading
Personal Weather Stations






























Interactive Weather Map
Tropical Storm Tracking
New forecast layout! Learn more

10-Day Weather Forecast

Advertisements
Track Severe Weather on mobile